Time;durP1;ratioP1;P1;durP2;ratioP2;P2;SDS_P1;SDS_P2;PMS_P1;PMS_P2;Temp;Humidity;BMP_temperature;BMP_pressure;BME280_temperature;BME280_humidity;BME280_pressure;Samples;Min_cycle;Max_cycle;Signal;HPM_P1;HPM_P2
2022/09/18 00:01:23;;;;;;;2.93;1.20;;;;;;;;;;5067575;28;20213;-59
2022/09/18 00:03:51;;;;;;;3.53;1.27;;;;;;;;;;5070087;28;20277;-59
2022/09/18 00:06:20;;;;;;;2.30;1.20;;;;;;;;;;5066884;28;20206;-59
2022/09/18 00:08:51;;;;;;;2.20;1.20;;;;;;;;;;5065660;28;20202;-59
2022/09/18 00:11:19;;;;;;;3.73;1.40;;;;;;;;;;5068439;28;20594;-59
2022/09/18 00:13:47;;;;;;;3.00;1.00;;;;;;;;;;5067886;28;20223;-59
2022/09/18 00:16:18;;;;;;;7.20;1.57;;;;;;;;;;5068892;28;20212;-59
2022/09/18 00:18:46;;;;;;;4.40;1.20;;;;;;;;;;5071010;28;20937;-59
2022/09/18 00:21:15;;;;;;;5.87;1.10;;;;;;;;;;5071158;28;20229;-59
2022/09/18 00:23:43;;;;;;;3.10;1.13;;;;;;;;;;5065758;28;20241;-59
2022/09/18 00:26:12;;;;;;;3.43;1.17;;;;;;;;;;5065768;28;20198;-59
2022/09/18 00:28:40;;;;;;;3.37;1.10;;;;;;;;;;5053880;28;20202;-59
2022/09/18 00:31:09;;;;;;;1.73;0.90;;;;;;;;;;5068657;28;20549;-59
2022/09/18 00:33:39;;;;;;;1.50;1.00;;;;;;;;;;5066764;28;20225;-59
2022/09/18 00:36:08;;;;;;;1.30;0.77;;;;;;;;;;5069693;28;20210;-59
2022/09/18 00:38:36;;;;;;;3.40;1.10;;;;;;;;;;5068581;28;20206;-59
2022/09/18 00:41:05;;;;;;;3.20;1.50;;;;;;;;;;5061335;28;20199;-59
2022/09/18 00:43:34;;;;;;;1.80;1.10;;;;;;;;;;5063399;28;20222;-59
2022/09/18 00:46:04;;;;;;;1.67;0.90;;;;;;;;;;5062979;28;20225;-59
2022/09/18 00:48:37;;;;;;;4.67;1.30;;;;;;;;;;5054988;28;20208;-59
2022/09/18 00:51:06;;;;;;;4.27;1.20;;;;;;;;;;5067937;28;20210;-59
2022/09/18 00:53:36;;;;;;;3.80;1.17;;;;;;;;;;5062040;28;20234;-59
2022/09/18 00:56:04;;;;;;;6.73;1.27;;;;;;;;;;5065524;28;20680;-59
2022/09/18 00:58:32;;;;;;;2.97;0.80;;;;;;;;;;5070251;28;20711;-59
2022/09/18 01:01:01;;;;;;;3.20;1.00;;;;;;;;;;5067630;28;20685;-59
2022/09/18 01:03:31;;;;;;;5.13;1.00;;;;;;;;;;5071035;28;20258;-59
2022/09/18 01:06:05;;;;;;;1.87;1.00;;;;;;;;;;5061362;28;20197;-59
2022/09/18 01:08:37;;;;;;;2.00;0.80;;;;;;;;;;5073038;28;20206;-59
2022/09/18 01:11:18;;;;;;;3.33;1.03;;;;;;;;;;5067250;28;20222;-59
2022/09/18 01:13:52;;;;;;;2.20;1.10;;;;;;;;;;5064424;28;20209;-59
2022/09/18 01:16:22;;;;;;;3.10;0.90;;;;;;;;;;5062929;28;20669;-59
2022/09/18 01:18:54;;;;;;;2.10;0.73;;;;;;;;;;5066346;28;20227;-59
2022/09/18 01:21:26;;;;;;;5.43;0.80;;;;;;;;;;5061310;28;20198;-59
2022/09/18 01:24:09;;;;;;;5.00;0.83;;;;;;;;;;5063748;28;20223;-59
2022/09/18 01:26:51;;;;;;;3.73;1.30;;;;;;;;;;5064943;28;20210;-59
2022/09/18 01:29:24;;;;;;;5.23;1.53;;;;;;;;;;5053129;28;20218;-59
2022/09/18 01:31:54;;;;;;;2.20;0.90;;;;;;;;;;5060071;28;20202;-59
2022/09/18 01:34:26;;;;;;;2.90;1.13;;;;;;;;;;5064366;28;20215;-59
2022/09/18 01:36:57;;;;;;;1.60;0.60;;;;;;;;;;5063493;28;20207;-59
2022/09/18 01:39:28;;;;;;;7.57;1.40;;;;;;;;;;5058192;28;20210;-59
2022/09/18 01:41:57;;;;;;;5.27;1.43;;;;;;;;;;5063810;28;20209;-59
2022/09/18 01:44:28;;;;;;;5.57;1.23;;;;;;;;;;5050140;28;20228;-59
2022/09/18 01:46:57;;;;;;;4.00;0.97;;;;;;;;;;5058073;28;20246;-59
2022/09/18 01:49:27;;;;;;;5.40;0.97;;;;;;;;;;5063075;28;20236;-59
2022/09/18 01:51:57;;;;;;;3.40;1.00;;;;;;;;;;5060918;28;20221;-59
2022/09/18 01:54:27;;;;;;;3.07;1.27;;;;;;;;;;5058190;28;20254;-59
2022/09/18 01:56:57;;;;;;;1.37;0.70;;;;;;;;;;5068286;28;20203;-59
2022/09/18 01:59:26;;;;;;;1.10;0.70;;;;;;;;;;5066197;28;20207;-59
2022/09/18 02:01:58;;;;;;;3.10;1.10;;;;;;;;;;5061286;28;20203;-59
2022/09/18 02:04:27;;;;;;;2.90;1.07;;;;;;;;;;5059107;28;20258;-59
2022/09/18 02:06:58;;;;;;;2.83;0.93;;;;;;;;;;5059934;28;20678;-59
2022/09/18 02:09:26;;;;;;;2.47;1.13;;;;;;;;;;5069703;28;20290;-59
2022/09/18 02:11:56;;;;;;;1.80;0.87;;;;;;;;;;5066769;28;20206;-59
2022/09/18 02:14:26;;;;;;;2.87;1.10;;;;;;;;;;5065652;28;20214;-59
2022/09/18 02:16:57;;;;;;;1.23;0.80;;;;;;;;;;5073098;28;20208;-59
2022/09/18 02:19:28;;;;;;;2.47;1.17;;;;;;;;;;5064074;28;20207;-59
2022/09/18 02:21:58;;;;;;;0.90;0.90;;;;;;;;;;5060218;28;20234;-59
2022/09/18 02:24:28;;;;;;;7.43;1.20;;;;;;;;;;5058489;28;20230;-59
2022/09/18 02:26:56;;;;;;;4.10;0.87;;;;;;;;;;5054640;28;20570;-59
2022/09/18 02:29:32;;;;;;;4.57;1.30;;;;;;;;;;5054232;28;20681;-59
2022/09/18 02:32:00;;;;;;;1.53;1.40;;;;;;;;;;5067794;28;20202;-59
2022/09/18 02:34:30;;;;;;;2.20;1.10;;;;;;;;;;5063969;28;20234;-59
2022/09/18 02:37:04;;;;;;;3.73;1.00;;;;;;;;;;5068012;28;20211;-59
2022/09/18 02:39:40;;;;;;;3.33;1.20;;;;;;;;;;5066514;28;20195;-59
2022/09/18 02:42:15;;;;;;;1.90;1.03;;;;;;;;;;5055881;28;20196;-59
2022/09/18 02:44:48;;;;;;;5.40;1.27;;;;;;;;;;5058155;28;20235;-59
2022/09/18 02:47:24;;;;;;;2.27;1.03;;;;;;;;;;5060403;28;20207;-59
2022/09/18 02:49:59;;;;;;;3.00;0.93;;;;;;;;;;5059173;28;20896;-59
2022/09/18 02:52:29;;;;;;;2.57;0.80;;;;;;;;;;5058312;28;20207;-59
2022/09/18 02:54:59;;;;;;;4.17;1.00;;;;;;;;;;5058966;28;20231;-59
2022/09/18 02:57:31;;;;;;;4.07;1.70;;;;;;;;;;5056393;28;20198;-59
2022/09/18 03:00:00;;;;;;;4.80;1.10;;;;;;;;;;5059955;28;20223;-59
2022/09/18 03:02:28;;;;;;;2.03;1.03;;;;;;;;;;5054800;28;20199;-59
2022/09/18 03:04:58;;;;;;;3.37;1.10;;;;;;;;;;5059395;28;20290;-59
2022/09/18 03:07:26;;;;;;;3.00;0.80;;;;;;;;;;5057168;28;20210;-58
2022/09/18 03:09:54;;;;;;;1.83;0.70;;;;;;;;;;5059891;28;20211;-59
2022/09/18 03:12:22;;;;;;;3.33;0.87;;;;;;;;;;5064303;28;20626;-58
2022/09/18 03:14:50;;;;;;;3.20;1.10;;;;;;;;;;5066043;28;20219;-59
2022/09/18 03:17:18;;;;;;;3.20;1.03;;;;;;;;;;5060861;28;20678;-58
2022/09/18 03:19:46;;;;;;;1.73;0.90;;;;;;;;;;5061509;28;20199;-58
2022/09/18 03:22:15;;;;;;;1.33;0.97;;;;;;;;;;5064263;28;20643;-59
2022/09/18 03:24:43;;;;;;;2.27;0.80;;;;;;;;;;5066948;28;20701;-59
2022/09/18 03:27:11;;;;;;;4.03;0.80;;;;;;;;;;5061441;28;20198;-59
2022/09/18 03:29:39;;;;;;;3.90;1.00;;;;;;;;;;5066931;28;20555;-59
2022/09/18 03:32:07;;;;;;;2.87;0.90;;;;;;;;;;5064794;28;20209;-59
2022/09/18 03:34:35;;;;;;;6.67;1.10;;;;;;;;;;5066968;28;20224;-59
2022/09/18 03:37:03;;;;;;;2.10;0.80;;;;;;;;;;5064704;28;20213;-59
2022/09/18 03:39:33;;;;;;;1.90;0.90;;;;;;;;;;5060736;28;20202;-59
2022/09/18 03:42:01;;;;;;;2.73;0.90;;;;;;;;;;5058468;28;20206;-58
2022/09/18 03:44:29;;;;;;;2.43;0.83;;;;;;;;;;5055444;28;20309;-59
2022/09/18 03:46:57;;;;;;;4.23;1.27;;;;;;;;;;5057264;28;20590;-59
2022/09/18 03:49:25;;;;;;;3.27;0.90;;;;;;;;;;5060507;28;20222;-59
2022/09/18 03:51:53;;;;;;;4.03;1.27;;;;;;;;;;5055703;28;20210;-59
2022/09/18 03:54:21;;;;;;;1.47;0.80;;;;;;;;;;5064702;28;20238;-59
2022/09/18 03:56:50;;;;;;;2.13;0.73;;;;;;;;;;5056997;28;20203;-58
2022/09/18 03:59:18;;;;;;;4.43;1.00;;;;;;;;;;5063151;28;20198;-57
2022/09/18 04:01:46;;;;;;;3.40;0.90;;;;;;;;;;5055724;28;20207;-58
2022/09/18 04:04:14;;;;;;;4.23;1.30;;;;;;;;;;5059605;28;20226;-59
2022/09/18 04:06:42;;;;;;;3.83;0.80;;;;;;;;;;5066892;28;20233;-60
2022/09/18 04:09:10;;;;;;;5.47;0.87;;;;;;;;;;5058309;28;20205;-59
2022/09/18 04:11:38;;;;;;;2.47;1.10;;;;;;;;;;5065379;28;20229;-59
2022/09/18 04:14:07;;;;;;;1.47;0.73;;;;;;;;;;5059847;28;20589;-59
2022/09/18 04:16:35;;;;;;;2.47;0.87;;;;;;;;;;5064735;28;20195;-59
2022/09/18 04:19:03;;;;;;;3.37;1.07;;;;;;;;;;5064971;28;20210;-59
2022/09/18 04:21:31;;;;;;;7.27;0.97;;;;;;;;;;5061529;28;20199;-59
2022/09/18 04:23:59;;;;;;;1.33;0.80;;;;;;;;;;5058592;28;20229;-59
2022/09/18 04:26:28;;;;;;;1.20;0.70;;;;;;;;;;5056811;28;20348;-59
2022/09/18 04:28:56;;;;;;;1.30;0.80;;;;;;;;;;5064363;28;20203;-59
2022/09/18 04:31:25;;;;;;;2.30;0.77;;;;;;;;;;5060978;28;20202;-59
2022/09/18 04:33:53;;;;;;;2.03;0.93;;;;;;;;;;5065847;28;20244;-59
2022/09/18 04:36:21;;;;;;;3.13;0.73;;;;;;;;;;5063653;28;20198;-59
2022/09/18 04:38:49;;;;;;;5.00;0.70;;;;;;;;;;5063209;28;20203;-59
2022/09/18 04:41:17;;;;;;;2.70;1.00;;;;;;;;;;5048624;28;20213;-59
2022/09/18 04:43:45;;;;;;;2.50;0.90;;;;;;;;;;5069164;28;20270;-59
2022/09/18 04:46:13;;;;;;;3.03;1.00;;;;;;;;;;5066865;28;20218;-59
2022/09/18 04:48:46;;;;;;;4.37;0.90;;;;;;;;;;5068532;28;20202;-59
2022/09/18 04:51:14;;;;;;;3.60;0.70;;;;;;;;;;5065500;28;20557;-59
2022/09/18 04:53:42;;;;;;;1.27;0.60;;;;;;;;;;5063464;28;20689;-59
2022/09/18 04:56:10;;;;;;;2.10;0.73;;;;;;;;;;5063044;28;20202;-59
2022/09/18 04:58:38;;;;;;;1.63;0.87;;;;;;;;;;5071820;28;20317;-59
2022/09/18 05:01:06;;;;;;;3.60;1.03;;;;;;;;;;5059423;28;20550;-59
2022/09/18 05:03:34;;;;;;;4.27;1.10;;;;;;;;;;5061083;28;20305;-59
2022/09/18 05:06:03;;;;;;;1.10;0.70;;;;;;;;;;5062136;28;20230;-59
2022/09/18 05:08:33;;;;;;;4.00;0.97;;;;;;;;;;5048508;28;20205;-59
2022/09/18 05:11:03;;;;;;;3.10;0.90;;;;;;;;;;5066689;28;20193;-59
2022/09/18 05:13:31;;;;;;;2.13;0.63;;;;;;;;;;5062717;28;20231;-59
2022/09/18 05:15:59;;;;;;;4.30;0.90;;;;;;;;;;5054408;28;20209;-59
2022/09/18 05:18:27;;;;;;;3.37;1.00;;;;;;;;;;5068107;28;20203;-59
2022/09/18 05:20:55;;;;;;;4.30;0.90;;;;;;;;;;5064802;28;20219;-59
2022/09/18 05:23:24;;;;;;;2.00;0.90;;;;;;;;;;5062637;28;20227;-59
2022/09/18 05:25:52;;;;;;;1.10;1.00;;;;;;;;;;5072652;28;20206;-59
2022/09/18 05:28:20;;;;;;;4.40;0.80;;;;;;;;;;5063895;28;20203;-59
2022/09/18 05:30:48;;;;;;;3.87;0.73;;;;;;;;;;5056112;28;20194;-59
2022/09/18 05:33:16;;;;;;;1.47;0.70;;;;;;;;;;5060835;28;20218;-59
2022/09/18 05:35:44;;;;;;;5.23;1.00;;;;;;;;;;5061470;28;20203;-59
2022/09/18 05:38:12;;;;;;;0.80;0.70;;;;;;;;;;5062465;28;20198;-59
2022/09/18 05:40:42;;;;;;;1.50;0.70;;;;;;;;;;5068458;28;20213;-59
2022/09/18 05:43:10;;;;;;;2.30;0.70;;;;;;;;;;5047653;28;20206;-58
2022/09/18 05:45:38;;;;;;;2.00;0.97;;;;;;;;;;5054616;28;20238;-59
2022/09/18 05:48:06;;;;;;;5.07;1.20;;;;;;;;;;5053480;28;20225;-59
2022/09/18 05:50:35;;;;;;;0.73;0.60;;;;;;;;;;5060957;28;20228;-59
2022/09/18 05:53:04;;;;;;;4.70;1.00;;;;;;;;;;5063046;28;20209;-59
2022/09/18 05:55:32;;;;;;;3.10;0.73;;;;;;;;;;5061712;28;20599;-59
2022/09/18 05:58:02;;;;;;;2.40;1.27;;;;;;;;;;5059815;28;20199;-59
2022/09/18 06:00:31;;;;;;;5.50;1.47;;;;;;;;;;5065459;28;20213;-59
2022/09/18 06:03:00;;;;;;;2.77;0.97;;;;;;;;;;5066946;28;20650;-59
2022/09/18 06:05:29;;;;;;;1.80;0.90;;;;;;;;;;5054542;28;20207;-59
2022/09/18 06:07:57;;;;;;;1.97;0.73;;;;;;;;;;5063276;28;20339;-59
2022/09/18 06:10:26;;;;;;;1.70;0.70;;;;;;;;;;5058692;28;20330;-60
2022/09/18 06:12:59;;;;;;;4.17;1.10;;;;;;;;;;5046350;28;20211;-59
2022/09/18 06:15:29;;;;;;;1.67;0.80;;;;;;;;;;5055701;28;20208;-58
2022/09/18 06:17:57;;;;;;;3.00;0.70;;;;;;;;;;5052622;28;20198;-59
2022/09/18 06:20:25;;;;;;;4.50;0.90;;;;;;;;;;5058322;28;20214;-59
2022/09/18 06:22:53;;;;;;;1.47;0.60;;;;;;;;;;5060899;28;20206;-59
2022/09/18 06:25:22;;;;;;;3.00;0.77;;;;;;;;;;5055455;28;20548;-59
2022/09/18 06:27:57;;;;;;;2.97;0.83;;;;;;;;;;5068995;28;20229;-59
2022/09/18 06:30:25;;;;;;;2.33;0.60;;;;;;;;;;5059775;28;22447;-59
2022/09/18 06:32:55;;;;;;;3.80;0.73;;;;;;;;;;5061341;28;20659;-59
2022/09/18 06:35:23;;;;;;;1.63;0.70;;;;;;;;;;5068441;28;20274;-59
2022/09/18 06:37:51;;;;;;;0.87;0.87;;;;;;;;;;5060995;28;20283;-59
2022/09/18 06:40:19;;;;;;;5.37;1.10;;;;;;;;;;5058141;28;20207;-59
2022/09/18 06:42:48;;;;;;;4.33;0.87;;;;;;;;;;5060043;28;20621;-58
2022/09/18 06:45:16;;;;;;;0.97;0.70;;;;;;;;;;5055297;28;20249;-58
2022/09/18 06:47:44;;;;;;;6.93;1.10;;;;;;;;;;5058559;28;20223;-61
2022/09/18 06:50:14;;;;;;;3.73;0.87;;;;;;;;;;5061319;28;20275;-58
2022/09/18 06:52:42;;;;;;;4.57;1.00;;;;;;;;;;5057474;28;20571;-58
2022/09/18 06:55:10;;;;;;;1.87;0.80;;;;;;;;;;5055194;28;20352;-59
2022/09/18 06:57:38;;;;;;;1.53;0.77;;;;;;;;;;5057780;28;20199;-58
2022/09/18 07:00:06;;;;;;;1.27;0.90;;;;;;;;;;5061907;28;20210;-59
2022/09/18 07:02:35;;;;;;;0.97;0.93;;;;;;;;;;5061410;28;20198;-59
2022/09/18 07:05:04;;;;;;;1.40;0.50;;;;;;;;;;5059818;28;20254;-59
2022/09/18 07:07:33;;;;;;;3.80;0.60;;;;;;;;;;5054993;28;20222;-59
2022/09/18 07:10:02;;;;;;;1.57;0.67;;;;;;;;;;5059404;28;20286;-59
2022/09/18 07:12:35;;;;;;;2.23;1.03;;;;;;;;;;5056193;28;20211;-59
2022/09/18 07:15:04;;;;;;;3.13;0.93;;;;;;;;;;5058070;28;20246;-59
2022/09/18 07:17:32;;;;;;;2.70;1.00;;;;;;;;;;5056061;28;20579;-59
2022/09/18 07:20:00;;;;;;;2.57;0.57;;;;;;;;;;5058200;28;20199;-59
2022/09/18 07:22:28;;;;;;;2.80;0.87;;;;;;;;;;5056532;28;20203;-58
2022/09/18 07:24:57;;;;;;;7.57;0.90;;;;;;;;;;5059077;28;20230;-59
2022/09/18 07:27:25;;;;;;;1.00;0.87;;;;;;;;;;5058414;28;20238;-59
2022/09/18 07:29:55;;;;;;;2.00;1.07;;;;;;;;;;5056558;28;20286;-59
2022/09/18 07:32:24;;;;;;;4.70;1.27;;;;;;;;;;5059182;28;20229;-59
2022/09/18 07:34:52;;;;;;;2.87;0.80;;;;;;;;;;5059822;28;20219;-59
2022/09/18 07:37:20;;;;;;;2.63;0.80;;;;;;;;;;5053538;28;20658;-59
2022/09/18 07:39:52;;;;;;;1.23;0.80;;;;;;;;;;5061593;28;20214;-59
2022/09/18 07:42:22;;;;;;;4.47;1.13;;;;;;;;;;5057929;28;20286;-59
2022/09/18 07:44:50;;;;;;;1.53;0.87;;;;;;;;;;5065033;28;20723;-59
2022/09/18 07:47:18;;;;;;;1.93;1.10;;;;;;;;;;5071506;28;20242;-59
2022/09/18 07:49:46;;;;;;;4.03;0.97;;;;;;;;;;5059226;28;20234;-59
2022/09/18 07:52:14;;;;;;;0.77;0.50;;;;;;;;;;5064584;28;20207;-58
2022/09/18 07:54:42;;;;;;;4.70;0.77;;;;;;;;;;5064322;28;20253;-59
2022/09/18 07:57:10;;;;;;;0.83;0.80;;;;;;;;;;5063635;28;20202;-59
2022/09/18 07:59:40;;;;;;;2.67;1.10;;;;;;;;;;5071500;28;20203;-59
2022/09/18 08:02:07;;;;;;;2.93;0.97;;;;;;;;;;5061788;28;20207;-59
2022/09/18 08:04:36;;;;;;;5.90;1.37;;;;;;;;;;5061682;28;20223;-58
2022/09/18 08:07:03;;;;;;;2.23;0.73;;;;;;;;;;5062344;28;20194;-59
2022/09/18 08:09:31;;;;;;;5.37;0.90;;;;;;;;;;5071786;28;20202;-59
2022/09/18 08:11:59;;;;;;;3.53;0.87;;;;;;;;;;5069418;28;20365;-59
2022/09/18 08:14:28;;;;;;;3.90;0.73;;;;;;;;;;5068330;28;20606;-59
2022/09/18 08:16:57;;;;;;;1.37;0.93;;;;;;;;;;5063397;28;20202;-58
2022/09/18 08:19:25;;;;;;;3.17;1.23;;;;;;;;;;5064633;28;20198;-59
2022/09/18 08:21:53;;;;;;;1.37;0.90;;;;;;;;;;5062805;28;20199;-59
2022/09/18 08:24:21;;;;;;;2.63;1.10;;;;;;;;;;5057482;28;20309;-59
2022/09/18 08:26:49;;;;;;;3.73;1.10;;;;;;;;;;5065165;28;20686;-58
2022/09/18 08:29:18;;;;;;;2.43;0.83;;;;;;;;;;5058300;28;20219;-58
2022/09/18 08:31:47;;;;;;;2.47;1.13;;;;;;;;;;5062010;28;20567;-58
2022/09/18 08:34:16;;;;;;;1.87;1.03;;;;;;;;;;5062670;28;20226;-58
2022/09/18 08:36:44;;;;;;;1.33;1.00;;;;;;;;;;5060934;28;20203;-58
2022/09/18 08:39:12;;;;;;;1.10;1.00;;;;;;;;;;5059425;28;20210;-55
2022/09/18 08:41:52;;;;;;;1.70;1.00;;;;;;;;;;5057329;28;20205;-56
2022/09/18 08:44:23;;;;;;;1.43;0.87;;;;;;;;;;5050781;28;20317;-57
2022/09/18 08:46:53;;;;;;;3.17;0.90;;;;;;;;;;5054182;28;20294;-59
2022/09/18 08:49:25;;;;;;;3.17;0.80;;;;;;;;;;5052597;28;20220;-59
2022/09/18 08:51:55;;;;;;;3.40;1.17;;;;;;;;;;5054494;28;20666;-64
2022/09/18 08:54:26;;;;;;;3.47;0.80;;;;;;;;;;5055965;28;20257;-63
2022/09/18 08:56:55;;;;;;;3.63;0.97;;;;;;;;;;5061364;28;20677;-63
2022/09/18 08:59:28;;;;;;;1.33;0.60;;;;;;;;;;5052376;28;20223;-63
2022/09/18 09:02:04;;;;;;;5.50;0.93;;;;;;;;;;5056161;28;20200;-61
2022/09/18 09:04:35;;;;;;;3.27;1.10;;;;;;;;;;5051831;28;20264;-63
2022/09/18 09:07:08;;;;;;;2.73;0.97;;;;;;;;;;5055749;28;20278;-62
2022/09/18 09:09:45;;;;;;;6.10;1.10;;;;;;;;;;5060872;28;20222;-60
2022/09/18 09:12:17;;;;;;;1.80;0.50;;;;;;;;;;5046667;28;20206;-65
2022/09/18 09:14:57;;;;;;;3.70;0.80;;;;;;;;;;5056687;28;20228;-63
2022/09/18 09:17:37;;;;;;;2.73;1.17;;;;;;;;;;5064460;28;20246;-63
2022/09/18 09:20:11;;;;;;;1.17;0.70;;;;;;;;;;5063408;28;20210;-66
2022/09/18 09:22:44;;;;;;;1.63;0.90;;;;;;;;;;5055908;28;20392;-69
2022/09/18 09:25:19;;;;;;;2.23;0.90;;;;;;;;;;5073296;28;20237;-69
2022/09/18 09:27:49;;;;;;;1.33;0.80;;;;;;;;;;5059330;28;20207;-69
2022/09/18 09:30:18;;;;;;;2.33;0.87;;;;;;;;;;5056753;28;20207;-69
2022/09/18 09:32:48;;;;;;;1.53;0.90;;;;;;;;;;5060503;28;20204;-68
2022/09/18 09:35:21;;;;;;;4.27;1.27;;;;;;;;;;5056949;28;20222;-68
2022/09/18 09:37:50;;;;;;;2.67;1.30;;;;;;;;;;5069981;28;20204;-69
2022/09/18 09:40:20;;;;;;;3.60;0.70;;;;;;;;;;5073889;28;20206;-69
2022/09/18 09:42:53;;;;;;;1.17;0.63;;;;;;;;;;5063378;28;20203;-68
2022/09/18 09:45:24;;;;;;;1.67;0.77;;;;;;;;;;5063255;28;20217;-69
2022/09/18 09:47:58;;;;;;;1.50;0.63;;;;;;;;;;5063586;28;20207;-71
2022/09/18 09:50:34;;;;;;;2.83;1.10;;;;;;;;;;5069636;28;20198;-67
2022/09/18 09:53:06;;;;;;;0.67;0.60;;;;;;;;;;5052003;28;20628;-69
2022/09/18 09:55:37;;;;;;;3.03;1.10;;;;;;;;;;5069473;28;20231;-65
2022/09/18 09:58:10;;;;;;;3.23;0.97;;;;;;;;;;5064625;28;20206;-64
2022/09/18 10:00:40;;;;;;;1.07;0.60;;;;;;;;;;5061998;28;20205;-64
2022/09/18 10:03:29;;;;;;;2.10;0.80;;;;;;;;;;5063629;28;20252;-63
2022/09/18 10:06:03;;;;;;;4.70;1.10;;;;;;;;;;5051678;28;21172;-63
2022/09/18 10:08:33;;;;;;;1.73;0.70;;;;;;;;;;5068387;28;20312;-63
2022/09/18 10:11:02;;;;;;;2.50;0.90;;;;;;;;;;5061256;28;20199;-63
2022/09/18 10:13:32;;;;;;;0.93;0.63;;;;;;;;;;5069716;28;20222;-63
2022/09/18 10:16:01;;;;;;;1.00;0.70;;;;;;;;;;5062823;28;20195;-64
2022/09/18 10:18:31;;;;;;;0.97;0.80;;;;;;;;;;5070431;28;20651;-63
2022/09/18 10:21:03;;;;;;;2.00;0.90;;;;;;;;;;5062161;28;20207;-62
2022/09/18 10:23:34;;;;;;;4.40;2.67;;;;;;;;;;5063524;28;20219;-62
2022/09/18 10:26:03;;;;;;;1.33;0.80;;;;;;;;;;5050099;28;20675;-62
2022/09/18 10:28:31;;;;;;;3.13;2.03;;;;;;;;;;5058539;28;20207;-63
2022/09/18 10:31:00;;;;;;;2.77;0.87;;;;;;;;;;5066410;28;20202;-63
2022/09/18 10:33:32;;;;;;;0.63;0.63;;;;;;;;;;5071441;28;20229;-65
2022/09/18 10:36:04;;;;;;;1.33;0.97;;;;;;;;;;5068243;28;20204;-63
2022/09/18 10:38:33;;;;;;;3.00;1.40;;;;;;;;;;5061582;28;20198;-63
2022/09/18 10:41:25;;;;;;;2.63;1.00;;;;;;;;;;5064469;28;20594;-63
2022/09/18 10:43:55;;;;;;;4.43;0.90;;;;;;;;;;5053182;28;20223;-63
2022/09/18 10:46:23;;;;;;;1.43;0.70;;;;;;;;;;5061508;28;20284;-62
2022/09/18 10:48:51;;;;;;;2.37;0.50;;;;;;;;;;5071417;28;20223;-63
2022/09/18 10:51:24;;;;;;;5.67;0.80;;;;;;;;;;5063399;28;20203;-63
2022/09/18 10:54:03;;;;;;;0.93;0.60;;;;;;;;;;5059188;28;20595;-63
2022/09/18 10:56:32;;;;;;;1.80;0.60;;;;;;;;;;5069950;28;20213;-63
2022/09/18 10:59:13;;;;;;;1.87;0.60;;;;;;;;;;5066159;28;20210;-63
2022/09/18 11:01:41;;;;;;;1.77;0.63;;;;;;;;;;5078036;28;20213;-63
2022/09/18 11:04:15;;;;;;;1.90;0.73;;;;;;;;;;5066642;28;20222;-63
2022/09/18 11:06:46;;;;;;;1.37;0.77;;;;;;;;;;5077173;28;20207;-63
2022/09/18 11:09:16;;;;;;;1.30;0.70;;;;;;;;;;5067556;28;20225;-63
2022/09/18 11:11:45;;;;;;;3.87;0.80;;;;;;;;;;5059822;28;20207;-63
2022/09/18 11:14:16;;;;;;;0.47;0.47;;;;;;;;;;5060436;28;20712;-63
2022/09/18 11:16:47;;;;;;;2.30;0.80;;;;;;;;;;5062443;28;20218;-63
2022/09/18 11:19:20;;;;;;;2.67;0.93;;;;;;;;;;5062075;28;20537;-63
2022/09/18 11:21:51;;;;;;;4.03;0.90;;;;;;;;;;5068962;28;20206;-63
2022/09/18 11:24:22;;;;;;;1.53;0.70;;;;;;;;;;5074150;28;20218;-63
2022/09/18 11:26:50;;;;;;;2.33;0.93;;;;;;;;;;5072497;28;20206;-63
2022/09/18 11:29:21;;;;;;;3.97;0.80;;;;;;;;;;5053509;28;20230;-63
2022/09/18 11:31:51;;;;;;;1.33;0.90;;;;;;;;;;5059947;28;20681;-63
2022/09/18 11:34:27;;;;;;;1.00;0.60;;;;;;;;;;5060645;28;20222;-63
2022/09/18 11:36:59;;;;;;;2.17;0.77;;;;;;;;;;5069730;28;20206;-63
2022/09/18 11:39:29;;;;;;;2.30;1.00;;;;;;;;;;5065894;28;20199;-63
2022/09/18 11:41:58;;;;;;;1.93;0.90;;;;;;;;;;5071987;28;20221;-63
2022/09/18 11:44:27;;;;;;;1.07;0.70;;;;;;;;;;5064097;28;20226;-63
2022/09/18 11:47:17;;;;;;;3.10;1.20;;;;;;;;;;5065275;28;20204;-63
2022/09/18 11:49:47;;;;;;;4.30;1.70;;;;;;;;;;5066285;28;20220;-63
2022/09/18 11:52:18;;;;;;;2.83;0.90;;;;;;;;;;5064539;28;20202;-63
2022/09/18 11:54:50;;;;;;;1.63;0.70;;;;;;;;;;5066857;28;20231;-63
2022/09/18 11:57:20;;;;;;;1.33;0.70;;;;;;;;;;5064632;28;20230;-63
2022/09/18 11:59:51;;;;;;;3.47;1.10;;;;;;;;;;5062103;28;20205;-63
2022/09/18 12:02:22;;;;;;;0.83;0.57;;;;;;;;;;5064432;28;20202;-63
2022/09/18 12:04:52;;;;;;;2.17;0.70;;;;;;;;;;5070339;28;20219;-63
2022/09/18 12:07:29;;;;;;;1.10;0.60;;;;;;;;;;5059461;28;20293;-63
2022/09/18 12:10:11;;;;;;;1.27;0.40;;;;;;;;;;5063728;28;20226;-63
2022/09/18 12:12:41;;;;;;;1.27;0.77;;;;;;;;;;5064851;28;20195;-63
2022/09/18 12:15:12;;;;;;;1.63;0.60;;;;;;;;;;5054039;28;20219;-62
2022/09/18 12:17:42;;;;;;;0.50;0.50;;;;;;;;;;5073884;28;20674;-63
2022/09/18 12:20:12;;;;;;;0.67;0.67;;;;;;;;;;5057170;28;20218;-62
2022/09/18 12:22:44;;;;;;;1.37;1.23;;;;;;;;;;5066937;28;20199;-62
2022/09/18 12:25:13;;;;;;;4.03;0.77;;;;;;;;;;5055480;28;20219;-62
2022/09/18 12:27:44;;;;;;;1.40;0.60;;;;;;;;;;5069562;28;20209;-64
2022/09/18 12:30:14;;;;;;;5.50;0.73;;;;;;;;;;5057715;28;20231;-61
2022/09/18 12:32:51;;;;;;;1.50;0.60;;;;;;;;;;5060250;28;20226;-62
2022/09/18 12:35:24;;;;;;;1.37;0.80;;;;;;;;;;5069712;28;20204;-64
2022/09/18 12:37:59;;;;;;;2.40;1.13;;;;;;;;;;5059501;28;20203;-63
2022/09/18 12:40:36;;;;;;;1.80;0.67;;;;;;;;;;5070136;28;20199;-62
2022/09/18 12:43:13;;;;;;;1.47;0.80;;;;;;;;;;5066545;28;20791;-62
2022/09/18 12:45:50;;;;;;;1.67;0.50;;;;;;;;;;5061030;28;20202;-62
2022/09/18 12:48:28;;;;;;;2.13;1.00;;;;;;;;;;5072218;28;20206;-62
2022/09/18 12:51:07;;;;;;;3.13;0.70;;;;;;;;;;5060828;28;20225;-61
2022/09/18 12:53:42;;;;;;;1.77;0.60;;;;;;;;;;5064526;28;20226;-62
2022/09/18 12:56:17;;;;;;;2.23;0.60;;;;;;;;;;5066448;28;20204;-62
2022/09/18 12:59:01;;;;;;;4.70;0.50;;;;;;;;;;5059514;28;20205;-62
2022/09/18 13:01:32;;;;;;;1.57;0.60;;;;;;;;;;5068447;28;20201;-62
2022/09/18 13:04:03;;;;;;;0.93;0.50;;;;;;;;;;5067231;28;20221;-62
2022/09/18 13:06:34;;;;;;;0.30;0.30;;;;;;;;;;5061497;28;20673;-62
2022/09/18 13:09:06;;;;;;;0.90;0.67;;;;;;;;;;5061554;28;20205;-62
2022/09/18 13:11:38;;;;;;;0.40;0.40;;;;;;;;;;5072436;28;20226;-62
2022/09/18 13:14:11;;;;;;;0.80;0.50;;;;;;;;;;5064776;28;20682;-62
2022/09/18 13:16:42;;;;;;;0.47;0.47;;;;;;;;;;5066575;28;20202;-64
2022/09/18 13:19:18;;;;;;;0.87;0.60;;;;;;;;;;5061850;28;20343;-62
2022/09/18 13:21:46;;;;;;;1.33;0.53;;;;;;;;;;5072795;28;20214;-62
2022/09/18 13:24:18;;;;;;;1.23;0.53;;;;;;;;;;5065458;28;20229;-61
2022/09/18 13:26:47;;;;;;;0.80;0.53;;;;;;;;;;5065520;28;20276;-62
2022/09/18 13:29:33;;;;;;;0.53;0.53;;;;;;;;;;5058733;28;20684;-62
2022/09/18 13:32:01;;;;;;;1.97;0.73;;;;;;;;;;5049095;28;20234;-62
2022/09/18 13:34:29;;;;;;;0.20;0.20;;;;;;;;;;5071388;28;20314;-62
2022/09/18 13:37:05;;;;;;;0.40;0.40;;;;;;;;;;5059585;28;20229;-62
2022/09/18 13:39:34;;;;;;;2.40;0.60;;;;;;;;;;5046413;28;20230;-62
2022/09/18 13:42:29;;;;;;;0.50;0.50;;;;;;;;;;5074537;28;20688;-62
2022/09/18 13:45:02;;;;;;;0.47;0.47;;;;;;;;;;5075280;28;20222;-61
2022/09/18 13:47:30;;;;;;;1.47;0.60;;;;;;;;;;5066722;28;20291;-63
2022/09/18 13:50:00;;;;;;;0.83;0.40;;;;;;;;;;5065133;28;20205;-61
2022/09/18 13:52:41;;;;;;;0.97;0.50;;;;;;;;;;5074384;28;20285;-62
2022/09/18 13:55:35;;;;;;;0.63;0.53;;;;;;;;;;5061541;28;20237;-62
2022/09/18 13:58:21;;;;;;;0.43;0.40;;;;;;;;;;5059339;28;20678;-62
2022/09/18 14:00:49;;;;;;;1.53;0.67;;;;;;;;;;5056449;28;20205;-62
2022/09/18 14:03:41;;;;;;;4.00;0.90;;;;;;;;;;5073565;28;20230;-61
2022/09/18 14:06:27;;;;;;;0.70;0.70;;;;;;;;;;5041766;28;20205;-62
2022/09/18 14:08:55;;;;;;;0.70;0.70;;;;;;;;;;5069457;28;20216;-62
2022/09/18 14:11:25;;;;;;;0.80;0.40;;;;;;;;;;5075516;28;20218;-62
2022/09/18 14:13:54;;;;;;;3.57;0.57;;;;;;;;;;5068059;28;20227;-62
2022/09/18 14:16:34;;;;;;;0.70;0.60;;;;;;;;;;5060017;28;20742;-62
2022/09/18 14:19:03;;;;;;;0.67;0.50;;;;;;;;;;5061514;28;20198;-62
2022/09/18 14:21:32;;;;;;;2.40;0.90;;;;;;;;;;5066555;28;20214;-62
2022/09/18 14:24:05;;;;;;;1.83;0.80;;;;;;;;;;5074379;28;20727;-62
2022/09/18 14:27:03;;;;;;;1.37;0.83;;;;;;;;;;5069737;28;20216;-62
2022/09/18 14:29:33;;;;;;;0.60;0.60;;;;;;;;;;5004823;28;20639;-62
2022/09/18 14:32:02;;;;;;;1.23;0.60;;;;;;;;;;5058376;28;21617;-62
2022/09/18 14:34:34;;;;;;;1.43;0.60;;;;;;;;;;5076857;28;20222;-62
2022/09/18 14:37:16;;;;;;;0.63;0.50;;;;;;;;;;5062484;28;20203;-62
2022/09/18 14:39:44;;;;;;;2.43;1.20;;;;;;;;;;5065085;28;20202;-62
2022/09/18 14:42:14;;;;;;;1.60;0.73;;;;;;;;;;5063267;28;20561;-62
2022/09/18 14:44:48;;;;;;;0.60;0.60;;;;;;;;;;5058436;28;20225;-62
2022/09/18 14:47:20;;;;;;;1.77;0.60;;;;;;;;;;5066565;28;20572;-62
2022/09/18 14:49:48;;;;;;;1.47;0.67;;;;;;;;;;5077681;28;20646;-62
2022/09/18 14:52:19;;;;;;;3.33;0.80;;;;;;;;;;5067607;28;20222;-62
2022/09/18 14:54:48;;;;;;;0.73;0.63;;;;;;;;;;5072889;28;20234;-62
2022/09/18 14:57:18;;;;;;;3.57;0.90;;;;;;;;;;5066380;28;20570;-62
2022/09/18 14:59:48;;;;;;;0.60;0.50;;;;;;;;;;5069502;28;20195;-62
2022/09/18 15:02:19;;;;;;;1.23;0.70;;;;;;;;;;5062613;28;20199;-62
2022/09/18 15:04:47;;;;;;;1.30;0.60;;;;;;;;;;5075563;28;20244;-62